Panama City, Florida
Current Conditions -  °F | °C
As of 2:58 AM on Thursday 18 Dec 2014 (Local Time) from KPAM Reporting Station
Clear Clear  
Wind Chill: 46°   Ceiling: Unl
Heat Index: 47°   Visibility: 10mi
Dew Point: 42°   Wind: 5mph
Humidity: 83%   Direction: 10°N
Pressure: 30.18"   Gusts: NA
Location:  30.16°N, 85.66°W
Report Text: KPAM 180858Z AUTO 01004KT 10SM CLR 09/06 A3018 RMK AO2 SLP223 T00860058 50004 $
Loading
Personal Weather Stations






























Interactive Weather Map New forecast layout! Learn more

10-Day Weather Forecast

Advertisements
Track Severe Weather on mobile